ANA555 RJBB-RJFM
Flight info
| Callsign | ANA555 |
|---|---|
| Flight time | N/A |
| Altitude | 28000 |
| Route | OBLUR Y236 VEXOT Y756 KRE Y232 SIROK Y402 RYUGU |
| Aircraft | B38M/M-SDE1FGHILORVWXY/HB1 |
Departure
| Time | N/A |
|---|---|
| Airport | Kansai International Airport (RJBB) |
Arrival
| Time | 2026-05-03 20:40 |
|---|---|
| Airport | Miyazaki Airport (RJFM) |
| Time | Latitude | Longitude | Altitude | Speed | Heading |
|---|---|---|---|---|---|
| 2026-05-03 20:15 | 32.72453 | 132.79830 | 27677 ft | 380 kts | 225° |
| 2026-05-03 20:15 | 32.70472 | 132.77719 | 26569 ft | 377 kts | 225° |
| 2026-05-03 20:15 | 32.68524 | 132.75645 | 25379 ft | 377 kts | 225° |
| 2026-05-03 20:15 | 32.66574 | 132.73567 | 24486 ft | 378 kts | 225° |
| 2026-05-03 20:16 | 32.64608 | 132.71474 | 23606 ft | 381 kts | 225° |
| 2026-05-03 20:16 | 32.62668 | 132.69414 | 22621 ft | 375 kts | 225° |
| 2026-05-03 20:16 | 32.60759 | 132.67389 | 21674 ft | 362 kts | 225° |
| 2026-05-03 20:16 | 32.58909 | 132.65425 | 20787 ft | 351 kts | 225° |
| 2026-05-03 20:17 | 32.57114 | 132.63521 | 20032 ft | 340 kts | 225° |
| 2026-05-03 20:17 | 32.55414 | 132.61718 | 19897 ft | 314 kts | 226° |
| 2026-05-03 20:17 | 32.53827 | 132.60036 | 19873 ft | 305 kts | 226° |
| 2026-05-03 20:17 | 32.52256 | 132.58371 | 19621 ft | 298 kts | 226° |
| 2026-05-03 20:18 | 32.50708 | 132.56729 | 18713 ft | 300 kts | 226° |
| 2026-05-03 20:18 | 32.49155 | 132.55085 | 17991 ft | 297 kts | 226° |
| 2026-05-03 20:18 | 32.47640 | 132.53482 | 17188 ft | 295 kts | 226° |
| 2026-05-03 20:18 | 32.46129 | 132.51885 | 16650 ft | 291 kts | 226° |
| 2026-05-03 20:19 | 32.44638 | 132.50310 | 16205 ft | 283 kts | 225° |
| 2026-05-03 20:19 | 32.43187 | 132.48778 | 15786 ft | 278 kts | 225° |
| 2026-05-03 20:19 | 32.41750 | 132.47260 | 15382 ft | 277 kts | 225° |
| 2026-05-03 20:19 | 32.40310 | 132.45740 | 14980 ft | 276 kts | 225° |
| 2026-05-03 20:20 | 32.38875 | 132.44226 | 14569 ft | 276 kts | 225° |
| 2026-05-03 20:20 | 32.37448 | 132.42721 | 14188 ft | 275 kts | 225° |
| 2026-05-03 20:20 | 32.36040 | 132.41237 | 13825 ft | 274 kts | 225° |
| 2026-05-03 20:20 | 32.34616 | 132.39736 | 13431 ft | 274 kts | 225° |
| 2026-05-03 20:21 | 32.33195 | 132.38241 | 13005 ft | 273 kts | 225° |
| 2026-05-03 20:21 | 32.31792 | 132.36764 | 12737 ft | 267 kts | 225° |
| 2026-05-03 20:21 | 32.30415 | 132.35317 | 12449 ft | 263 kts | 225° |
| 2026-05-03 20:21 | 32.29051 | 132.33882 | 12069 ft | 263 kts | 225° |
| 2026-05-03 20:22 | 32.27688 | 132.32449 | 11713 ft | 261 kts | 225° |
| 2026-05-03 20:22 | 32.26345 | 132.31039 | 11509 ft | 255 kts | 225° |
| 2026-05-03 20:22 | 32.25055 | 132.29684 | 11356 ft | 249 kts | 225° |
| 2026-05-03 20:22 | 32.23776 | 132.28340 | 11224 ft | 243 kts | 225° |
| 2026-05-03 20:23 | 32.22528 | 132.27030 | 11098 ft | 237 kts | 225° |
| 2026-05-03 20:23 | 32.21301 | 132.25742 | 10985 ft | 235 kts | 226° |
| 2026-05-03 20:23 | 32.20182 | 132.24349 | 10839 ft | 234 kts | 232° |
| 2026-05-03 20:23 | 32.19125 | 132.22889 | 10730 ft | 234 kts | 232° |
| 2026-05-03 20:24 | 32.18061 | 132.21435 | 10612 ft | 234 kts | 231° |
| 2026-05-03 20:24 | 32.16992 | 132.19988 | 10496 ft | 234 kts | 231° |
| 2026-05-03 20:24 | 32.15916 | 132.18542 | 10394 ft | 235 kts | 231° |
| 2026-05-03 20:24 | 32.14837 | 132.17096 | 10279 ft | 235 kts | 231° |
| 2026-05-03 20:25 | 32.13771 | 132.15670 | 10159 ft | 235 kts | 231° |
| 2026-05-03 20:25 | 32.12688 | 132.14225 | 10008 ft | 235 kts | 231° |
| 2026-05-03 20:25 | 32.11602 | 132.12777 | 9725 ft | 235 kts | 231° |
| 2026-05-03 20:25 | 32.10518 | 132.11332 | 9455 ft | 235 kts | 231° |
| 2026-05-03 20:26 | 32.09435 | 132.09890 | 9201 ft | 235 kts | 231° |
| 2026-05-03 20:26 | 32.08356 | 132.08453 | 8940 ft | 234 kts | 231° |
| 2026-05-03 20:26 | 32.07276 | 132.07016 | 8684 ft | 234 kts | 232° |
| 2026-05-03 20:26 | 32.06198 | 132.05580 | 8428 ft | 234 kts | 232° |
| 2026-05-03 20:27 | 32.05127 | 132.04156 | 8172 ft | 231 kts | 232° |
| 2026-05-03 20:27 | 32.04083 | 132.02764 | 7920 ft | 228 kts | 232° |
| 2026-05-03 20:27 | 32.03041 | 132.01371 | 7673 ft | 225 kts | 232° |
| 2026-05-03 20:27 | 32.02013 | 131.99999 | 7448 ft | 221 kts | 232° |
| 2026-05-03 20:28 | 32.01003 | 131.98650 | 7230 ft | 218 kts | 232° |
| 2026-05-03 20:28 | 32.00023 | 131.97345 | 7137 ft | 204 kts | 233° |
| 2026-05-03 20:28 | 31.99118 | 131.96142 | 7080 ft | 190 kts | 233° |
| 2026-05-03 20:28 | 31.98252 | 131.94983 | 7019 ft | 188 kts | 233° |
| 2026-05-03 20:29 | 31.97400 | 131.93845 | 6995 ft | 188 kts | 233° |
| 2026-05-03 20:29 | 31.96534 | 131.92690 | 6997 ft | 188 kts | 233° |
| 2026-05-03 20:29 | 31.95668 | 131.91535 | 7000 ft | 188 kts | 233° |
| 2026-05-03 20:29 | 31.94803 | 131.90381 | 7002 ft | 188 kts | 233° |
| 2026-05-03 20:30 | 31.93936 | 131.89226 | 7006 ft | 187 kts | 233° |
| 2026-05-03 20:30 | 31.93111 | 131.88134 | 6998 ft | 170 kts | 233° |
| 2026-05-03 20:30 | 31.92352 | 131.87129 | 6987 ft | 157 kts | 234° |
| 2026-05-03 20:30 | 31.91623 | 131.86160 | 6732 ft | 161 kts | 234° |
| 2026-05-03 20:31 | 31.90890 | 131.85165 | 6433 ft | 163 kts | 237° |
| 2026-05-03 20:31 | 31.90495 | 131.83957 | 6083 ft | 159 kts | 261° |
| 2026-05-03 20:31 | 31.90362 | 131.82664 | 5775 ft | 159 kts | 263° |
| 2026-05-03 20:31 | 31.90246 | 131.81360 | 5264 ft | 161 kts | 264° |
| 2026-05-03 20:32 | 31.90140 | 131.80047 | 4667 ft | 161 kts | 265° |
| 2026-05-03 20:32 | 31.90043 | 131.78732 | 4052 ft | 161 kts | 266° |
| 2026-05-03 20:32 | 31.89950 | 131.77411 | 3468 ft | 162 kts | 268° |
| 2026-05-03 20:32 | 31.89862 | 131.76110 | 3030 ft | 154 kts | 268° |
| 2026-05-03 20:33 | 31.89786 | 131.74955 | 2976 ft | 131 kts | 268° |
| 2026-05-03 20:33 | 31.89718 | 131.73909 | 2941 ft | 129 kts | 268° |
| 2026-05-03 20:33 | 31.89653 | 131.72859 | 2920 ft | 130 kts | 268° |
| 2026-05-03 20:33 | 31.89586 | 131.71766 | 2892 ft | 137 kts | 268° |
| 2026-05-03 20:34 | 31.89516 | 131.70634 | 2918 ft | 140 kts | 268° |
| 2026-05-03 20:34 | 31.89446 | 131.69526 | 2951 ft | 133 kts | 268° |
| 2026-05-03 20:34 | 31.89371 | 131.68462 | 2960 ft | 128 kts | 268° |
| 2026-05-03 20:34 | 31.89299 | 131.67439 | 2937 ft | 123 kts | 270° |
| 2026-05-03 20:35 | 31.89246 | 131.66435 | 2921 ft | 123 kts | 270° |
| 2026-05-03 20:35 | 31.89187 | 131.65424 | 2938 ft | 124 kts | 270° |
| 2026-05-03 20:35 | 31.89125 | 131.64435 | 2916 ft | 122 kts | 269° |
| 2026-05-03 20:35 | 31.89059 | 131.63454 | 2763 ft | 119 kts | 268° |
| 2026-05-03 20:36 | 31.88990 | 131.62478 | 2638 ft | 120 kts | 268° |
| 2026-05-03 20:36 | 31.88920 | 131.61502 | 2484 ft | 120 kts | 268° |
| 2026-05-03 20:36 | 31.88852 | 131.60528 | 2367 ft | 120 kts | 268° |
| 2026-05-03 20:36 | 31.88784 | 131.59549 | 2215 ft | 120 kts | 267° |
| 2026-05-03 20:37 | 31.88713 | 131.58579 | 2055 ft | 119 kts | 266° |
| 2026-05-03 20:37 | 31.88643 | 131.57611 | 1900 ft | 119 kts | 267° |
| 2026-05-03 20:37 | 31.88571 | 131.56631 | 1739 ft | 122 kts | 267° |
| 2026-05-03 20:37 | 31.88504 | 131.55651 | 1712 ft | 121 kts | 266° |
| 2026-05-03 20:38 | 31.88443 | 131.54666 | 1602 ft | 121 kts | 264° |
| 2026-05-03 20:38 | 31.88362 | 131.53679 | 1398 ft | 122 kts | 264° |
| 2026-05-03 20:38 | 31.88285 | 131.52668 | 1216 ft | 125 kts | 264° |
| 2026-05-03 20:38 | 31.88208 | 131.51641 | 985 ft | 127 kts | 263° |
| 2026-05-03 20:39 | 31.88133 | 131.50582 | 791 ft | 133 kts | 263° |
| 2026-05-03 20:39 | 31.88055 | 131.49503 | 627 ft | 130 kts | 263° |
| 2026-05-03 20:39 | 31.87977 | 131.48459 | 459 ft | 127 kts | 263° |
| 2026-05-03 20:39 | 31.87905 | 131.47439 | 299 ft | 122 kts | 262° |
| 2026-05-03 20:40 | 31.87825 | 131.46479 | 118 ft | 116 kts | 262° |
| 2026-05-03 20:40 | 31.87759 | 131.45570 | 37 ft | 102 kts | 265° |
| 2026-05-03 20:40 | 31.87713 | 131.44911 | 36 ft | 60 kts | 265° |
| 2026-05-03 20:40 | 31.87691 | 131.44642 | 35 ft | 16 kts | 257° |
| 2026-05-03 20:41 | 31.87615 | 131.44586 | 35 ft | 7 kts | 176° |
| 2026-05-03 20:41 | 31.87593 | 131.44588 | 35 ft | 0 kts | 176° |
| 2026-05-03 20:41 | 31.87560 | 131.44589 | 35 ft | 13 kts | 188° |
| 2026-05-03 20:41 | 31.87515 | 131.44479 | 35 ft | 19 kts | 266° |
| 2026-05-03 20:42 | 31.87504 | 131.44326 | 35 ft | 11 kts | 265° |
| 2026-05-03 20:42 | 31.87491 | 131.44274 | 35 ft | 5 kts | 207° |
| 2026-05-03 20:42 | 31.87457 | 131.44282 | 35 ft | 6 kts | 173° |
| 2026-05-03 20:42 | 31.87406 | 131.44286 | 35 ft | 4 kts | 176° |
| 2026-05-03 20:43 | 31.87377 | 131.44289 | 35 ft | 3 kts | 175° |
| 2026-05-03 20:43 | 31.87362 | 131.44291 | 35 ft | 1 kts | 175° |
| 2026-05-03 20:43 | 31.87361 | 131.44291 | 35 ft | 0 kts | 175° |